Airfield :
LOGIN :

Register | Disclaimer

   EN    FR    IT 

 










Legend :    VFR   Marginal VFR   IFR   Intensive IFR   Very Intensive IFR
Visi :
Ceiling :
>= 8 km
>= 3000ft
5 to 8 km
1000 to 3000 ft
1500m to 5 km
500 to 1000 ft
800 to 1500m
200 to 500 ft
< 800m
< 200 ft
Symbols :   Thunderstorms  Fog  Heavy snow  Heavy precipitations  Wind > 20 kt
SIGMETs :     Misc.  Thunderstorms  Icing  Turbulence  Mountain Waves  Volcanic Ashes






- Airport Elevation : 681 ft
- IATA code : LBA


EGNM - Leeds Bradford

CURRENT METAR :
  • 280420Z 14005KT 9999 FEW049 09/08 Q1011

EXPIRED METARs :
  • 280350Z 15004KT 9999 BKN048 09/07 Q1012
  • 280320Z 14005KT 9999 BKN042 09/07 Q1012
  • 280250Z 17005KT 9999 BKN041 09/07 Q1012
  • 280220Z 19003KT 9999 BKN044 09/07 Q1012
  • 280150Z 19004KT 9999 FEW022 BKN044 10/08 Q1012
  • 280120Z 18003KT 9999 SCT023 SCT044 10/08 Q1013
  • 280050Z 20003KT 9999 SCT023 SCT044 10/07 Q1013
  • 280020Z 17004KT 140V210 9999 SCT022 09/08 Q1013
  • 272350Z VRB02KT 9999 SCT023 09/08 Q1013

TAF TAF EGNM
Valid from the 28 at 00:00 until the 29 at 00:00 UTC


272259Z 2800/2824 16007KT 9999 SCT030
PROB30 2800/2806 8000
PROB30
TEMPO 2806/2809 9000 -RA BKN012
TEMPO 2809/2814 7000 RA -RADZ BKN010
PROB30
TEMPO 2810/2814 4000 RADZ BKN004
BECMG 2814/2818 26010KT
TEMPO 2814/2824 6000 RA SHRA BKN012
PROB30
TEMPO 2814/2824 4000 +SHRA +TSRA BKN006 BKN018CB
ATIS : +44 113 250 9696 (x2489)



MET'MAP, your aeronautical weather chart ! - Copyright ORBIFLY December 2007 - Disclaimer

ORBIFLY MET'MAP TEAM :

Programming & Development : Alexandra Zaïnal
Original concept : Baudouin d'Aumeries
Technical & hardware support : Manuel Goepfert
Assistance : Marc-Olivier Méhu




SOURCES & CREDITS :

   NOAA